createdAt,value
2018-12-04T00:00:16.138Z,3.30
2018-12-04T00:02:44.171Z,2.90
2018-12-04T00:05:12.216Z,3.03
2018-12-04T00:07:40.218Z,1.90
2018-12-04T00:10:08.456Z,2.90
2018-12-04T00:12:36.438Z,2.70
2018-12-04T00:15:04.455Z,1.80
2018-12-04T00:17:32.425Z,2.50
2018-12-04T00:20:00.387Z,2.60
2018-12-04T00:22:28.388Z,2.40
2018-12-04T00:24:56.325Z,2.27
2018-12-04T00:27:24.303Z,2.40
2018-12-04T00:29:52.266Z,2.80
2018-12-04T00:32:20.236Z,6.03
2018-12-04T00:34:48.207Z,2.77
2018-12-04T00:37:16.180Z,1.83
2018-12-04T00:39:44.150Z,2.30
2018-12-04T00:42:12.163Z,1.93
2018-12-04T00:44:40.104Z,2.57
2018-12-04T00:47:08.073Z,2.23
2018-12-04T00:49:36.054Z,1.60
2018-12-04T00:52:04.062Z,1.97
2018-12-04T00:54:32.007Z,1.80
2018-12-04T00:56:59.968Z,1.57
2018-12-04T00:59:27.945Z,1.77
2018-12-04T01:01:55.901Z,2.10
2018-12-04T01:04:23.851Z,3.13
2018-12-04T01:06:51.854Z,1.50
2018-12-04T01:09:19.790Z,1.77
2018-12-04T01:11:47.778Z,1.53
2018-12-04T01:14:15.770Z,2.10
2018-12-04T01:16:43.768Z,2.07
2018-12-04T01:19:11.770Z,2.20
2018-12-04T01:21:39.794Z,1.57
2018-12-04T01:24:07.744Z,2.20
2018-12-04T01:26:35.715Z,2.00
2018-12-04T01:29:03.650Z,1.60
2018-12-04T01:31:31.697Z,1.90
2018-12-04T01:33:59.679Z,1.93
2018-12-04T01:36:27.710Z,2.03
2018-12-04T01:38:55.649Z,1.50
2018-12-04T01:41:23.644Z,2.90
2018-12-04T01:43:51.580Z,1.30
2018-12-04T01:46:19.583Z,1.73
2018-12-04T01:48:47.571Z,2.17
2018-12-04T01:51:15.515Z,1.77
2018-12-04T01:53:43.506Z,1.93
2018-12-04T01:56:11.461Z,2.27
2018-12-04T01:58:39.465Z,2.47
2018-12-04T02:01:07.822Z,2.00
2018-12-04T02:03:35.842Z,1.87
2018-12-04T02:06:03.815Z,2.70
2018-12-04T02:08:31.824Z,2.23
2018-12-04T02:10:59.819Z,2.40
2018-12-04T02:13:28.507Z,2.00
2018-12-04T02:15:56.439Z,2.23
2018-12-04T02:18:24.412Z,1.90
2018-12-04T02:20:53.174Z,1.73
2018-12-04T02:23:21.224Z,1.73
2018-12-04T02:25:49.195Z,2.63
2018-12-04T02:28:17.248Z,1.83
2018-12-04T02:30:45.223Z,2.00
2018-12-04T02:33:13.206Z,2.00
2018-12-04T02:35:41.188Z,2.37
2018-12-04T02:38:09.149Z,2.20
2018-12-04T02:40:37.156Z,2.27
2018-12-04T02:43:05.106Z,1.80
2018-12-04T02:45:33.380Z,2.70
2018-12-04T02:48:01.417Z,2.90
2018-12-04T02:50:29.370Z,1.97
2018-12-04T02:52:57.311Z,2.50
2018-12-04T02:55:25.283Z,2.50
2018-12-04T02:57:53.237Z,2.47
2018-12-04T03:00:21.193Z,1.73
2018-12-04T03:02:49.159Z,3.00
2018-12-04T03:05:17.134Z,1.80
2018-12-04T03:07:45.154Z,1.93
2018-12-04T03:10:13.182Z,2.83
2018-12-04T03:12:41.106Z,1.80
2018-12-04T03:15:09.831Z,3.50
2018-12-04T03:17:37.811Z,2.23
2018-12-04T03:20:05.843Z,2.37
2018-12-04T03:22:33.811Z,1.60
2018-12-04T03:25:01.897Z,2.40
2018-12-04T03:27:29.868Z,2.40
2018-12-04T03:29:57.912Z,2.83
2018-12-04T03:32:26.199Z,3.10
2018-12-04T03:34:54.234Z,2.53
2018-12-04T03:37:22.181Z,2.57
2018-12-04T03:39:50.982Z,2.93
2018-12-04T03:42:19.653Z,4.13
2018-12-04T03:44:47.671Z,2.03
2018-12-04T03:47:15.655Z,2.13
2018-12-04T03:49:43.713Z,2.60
2018-12-04T03:52:11.711Z,1.83
2018-12-04T03:54:39.737Z,3.10
2018-12-04T03:57:07.880Z,2.53
2018-12-04T03:59:35.902Z,2.37
2018-12-04T04:02:04.001Z,2.13
2018-12-04T04:04:32.805Z,2.70
2018-12-04T04:07:00.964Z,2.23
2018-12-04T04:09:28.990Z,2.30
2018-12-04T04:11:56.947Z,2.43
2018-12-04T04:14:24.932Z,2.93
2018-12-04T04:16:53.091Z,3.13
2018-12-04T04:19:21.058Z,2.87
2018-12-04T04:21:49.010Z,2.30
2018-12-04T04:24:16.984Z,2.73
2018-12-04T04:26:44.917Z,3.40
2018-12-04T04:29:12.939Z,2.50
2018-12-04T04:31:40.881Z,2.67
2018-12-04T04:34:08.856Z,2.63
2018-12-04T04:36:37.391Z,2.27
2018-12-04T04:39:06.017Z,2.50
2018-12-04T04:41:33.991Z,4.00
2018-12-04T04:44:02.052Z,2.43
2018-12-04T04:46:30.086Z,2.47
2018-12-04T04:48:58.269Z,4.17
2018-12-04T04:51:27.033Z,2.63
2018-12-04T04:53:54.998Z,3.53
2018-12-04T04:56:24.043Z,1.87
2018-12-04T04:58:52.060Z,3.17
2018-12-04T05:01:20.135Z,2.20
2018-12-04T05:03:50.967Z,3.00
2018-12-04T05:06:19.019Z,4.47
2018-12-04T05:08:47.014Z,3.70
2018-12-04T05:11:14.926Z,3.07
2018-12-04T05:13:42.961Z,2.70
2018-12-04T05:16:10.879Z,3.40
2018-12-04T05:18:38.950Z,2.80
2018-12-04T05:21:06.963Z,2.53
2018-12-04T05:23:34.927Z,2.50
2018-12-04T05:26:02.976Z,2.80
2018-12-04T05:28:31.507Z,3.30
2018-12-04T05:30:59.462Z,3.90
2018-12-04T05:33:29.004Z,3.30
2018-12-04T05:35:58.346Z,3.50
2018-12-04T05:38:26.292Z,4.37
2018-12-04T05:40:54.282Z,2.73
2018-12-04T05:43:23.062Z,3.33
2018-12-04T05:45:51.091Z,3.10
2018-12-04T05:48:19.088Z,2.73
2018-12-04T05:50:50.631Z,3.30
2018-12-04T05:53:30.090Z,2.80
2018-12-04T05:55:58.942Z,3.20
2018-12-04T05:58:26.946Z,4.37
2018-12-04T06:00:54.945Z,3.77
2018-12-04T06:03:22.903Z,2.40
2018-12-04T06:05:50.887Z,2.47
2018-12-04T06:08:18.931Z,2.67
2018-12-04T06:10:46.893Z,5.37
2018-12-04T06:13:14.846Z,4.70
2018-12-04T06:15:43.094Z,3.90
2018-12-04T06:18:11.672Z,3.10
2018-12-04T06:20:39.867Z,4.10
2018-12-04T06:23:08.940Z,5.50
2018-12-04T06:25:37.379Z,3.80
2018-12-04T06:28:05.329Z,3.40
2018-12-04T06:30:33.323Z,3.03
2018-12-04T06:33:01.431Z,3.17
2018-12-04T06:35:29.400Z,3.60
2018-12-04T06:37:57.363Z,3.20
2018-12-04T06:40:25.350Z,4.33
2018-12-04T06:42:53.370Z,3.33
2018-12-04T06:45:21.407Z,3.50
2018-12-04T06:47:49.379Z,4.67
2018-12-04T06:50:17.342Z,3.63
2018-12-04T06:52:45.308Z,2.67
2018-12-04T06:55:13.336Z,3.50
2018-12-04T06:57:41.339Z,3.67
2018-12-04T07:00:09.374Z,3.37
2018-12-04T07:02:37.394Z,3.00
2018-12-04T07:05:05.530Z,3.03
2018-12-04T07:07:33.819Z,2.87
2018-12-04T07:10:01.838Z,2.57
2018-12-04T07:12:29.889Z,3.80
2018-12-04T07:14:57.846Z,2.97
2018-12-04T07:17:25.795Z,3.53
2018-12-04T07:19:53.862Z,2.90
2018-12-04T07:22:21.863Z,3.00
2018-12-04T07:24:49.834Z,4.03
2018-12-04T07:27:17.952Z,2.90
2018-12-04T07:29:45.959Z,3.43
2018-12-04T07:32:13.929Z,2.93
2018-12-04T07:34:42.090Z,2.30
2018-12-04T07:37:10.782Z,2.90
2018-12-04T07:39:38.781Z,3.43
2018-12-04T07:42:06.794Z,3.00
2018-12-04T07:44:34.961Z,2.50
2018-12-04T07:47:03.015Z,3.63
2018-12-04T07:49:30.971Z,3.33
2018-12-04T07:51:58.982Z,3.23
2018-12-04T07:54:27.074Z,2.40
2018-12-04T07:56:55.107Z,4.13
2018-12-04T07:59:23.253Z,2.83
2018-12-04T08:01:51.392Z,3.13
2018-12-04T08:04:19.571Z,3.97
2018-12-04T08:06:47.574Z,2.70
2018-12-04T08:09:15.603Z,3.60
2018-12-04T08:11:43.740Z,3.40
2018-12-04T08:14:11.718Z,2.50
2018-12-04T08:16:39.689Z,2.60
2018-12-04T08:19:07.682Z,2.70
2018-12-04T08:21:35.910Z,3.50
2018-12-04T08:24:03.976Z,3.33
2018-12-04T08:26:32.024Z,1.90
2018-12-04T08:29:00.137Z,3.20
2018-12-04T08:31:29.368Z,2.90
2018-12-04T08:33:57.314Z,2.20
2018-12-04T08:36:25.395Z,2.47
2018-12-04T08:38:53.395Z,2.37
2018-12-04T08:41:21.368Z,2.23
2018-12-04T08:43:49.447Z,4.33
2018-12-04T08:46:17.464Z,3.20
2018-12-04T08:48:45.442Z,2.80
2018-12-04T08:51:13.513Z,3.30
2018-12-04T08:53:43.100Z,2.87
2018-12-04T08:56:11.072Z,2.90
2018-12-04T08:58:39.155Z,3.20
2018-12-04T09:01:07.467Z,3.00
2018-12-04T09:03:35.479Z,3.30
2018-12-04T09:06:05.613Z,3.00
2018-12-04T09:08:33.678Z,2.60
2018-12-04T09:11:02.026Z,2.57
2018-12-04T09:13:30.026Z,3.47
2018-12-04T09:15:58.021Z,4.40
2018-12-04T09:18:26.017Z,2.70
2018-12-04T09:20:54.182Z,2.80
2018-12-04T09:23:22.179Z,3.53
2018-12-04T09:25:50.291Z,3.20
2018-12-04T09:28:18.290Z,3.73
2018-12-04T09:30:49.084Z,3.63
2018-12-04T09:33:17.328Z,2.90
2018-12-04T09:35:45.310Z,2.90
2018-12-04T09:38:13.447Z,2.93
2018-12-04T09:40:41.429Z,3.43
2018-12-04T09:43:09.448Z,2.60
2018-12-04T09:45:37.455Z,2.80
2018-12-04T09:48:05.588Z,3.60
2018-12-04T09:50:33.558Z,3.20
2018-12-04T09:53:01.590Z,5.00
2018-12-04T09:55:29.594Z,2.37
2018-12-04T09:57:57.588Z,3.33
2018-12-04T10:00:25.544Z,2.93
2018-12-04T10:02:53.578Z,2.67
2018-12-04T10:05:21.606Z,3.13
2018-12-04T10:07:49.622Z,2.37
2018-12-04T10:10:17.614Z,3.13
2018-12-04T10:12:45.620Z,5.13
2018-12-04T10:15:13.850Z,3.93
2018-12-04T10:17:41.798Z,2.60
2018-12-04T10:20:09.871Z,2.80
2018-12-04T10:22:37.882Z,2.30
2018-12-04T10:25:05.839Z,3.00
2018-12-04T10:27:33.780Z,2.40
2018-12-04T10:30:01.790Z,3.10
2018-12-04T10:32:29.745Z,2.57
2018-12-04T10:34:57.686Z,3.27
2018-12-04T10:37:25.678Z,3.03
2018-12-04T10:39:53.851Z,3.47
2018-12-04T10:42:21.915Z,3.67
2018-12-04T10:44:49.952Z,3.20
2018-12-04T10:47:17.910Z,3.40
2018-12-04T10:49:45.917Z,2.67
2018-12-04T10:52:13.883Z,2.67
2018-12-04T10:54:41.893Z,3.13
2018-12-04T10:57:10.138Z,2.87
2018-12-04T10:59:38.123Z,2.70
2018-12-04T11:02:11.691Z,2.57
2018-12-04T11:04:39.672Z,3.10
2018-12-04T11:07:07.670Z,3.50
2018-12-04T11:09:35.647Z,2.37
2018-12-04T11:12:03.680Z,2.43
2018-12-04T11:14:31.815Z,3.20
2018-12-04T11:16:59.795Z,2.87
2018-12-04T11:19:27.814Z,3.03
2018-12-04T11:21:55.818Z,2.10
2018-12-04T11:24:23.801Z,2.33
2018-12-04T11:26:52.109Z,2.23
2018-12-04T11:29:20.228Z,1.40
2018-12-04T11:31:48.451Z,2.77
2018-12-04T11:34:16.579Z,2.33
2018-12-04T11:36:44.506Z,2.20
2018-12-04T11:39:12.482Z,2.60
2018-12-04T11:41:40.462Z,3.10
2018-12-04T11:44:08.426Z,2.77
2018-12-04T11:46:36.453Z,2.53
2018-12-04T11:49:04.458Z,2.43
2018-12-04T11:51:32.407Z,3.47
2018-12-04T11:54:00.430Z,2.80
2018-12-04T11:56:28.398Z,2.57
2018-12-04T11:58:57.458Z,2.07
2018-12-04T12:01:27.575Z,3.43
2018-12-04T12:03:55.590Z,3.30
2018-12-04T12:06:23.623Z,3.20
2018-12-04T12:08:52.557Z,2.97
2018-12-04T12:11:20.493Z,2.70
2018-12-04T12:13:48.604Z,2.77
2018-12-04T12:16:17.797Z,3.30
2018-12-04T12:18:46.253Z,2.57
2018-12-04T12:21:14.250Z,3.10
2018-12-04T12:23:43.019Z,2.77
2018-12-04T12:26:11.006Z,2.77
2018-12-04T12:28:38.943Z,3.57
2018-12-04T12:31:06.898Z,3.07
2018-12-04T12:33:35.448Z,2.70
2018-12-04T12:36:03.700Z,2.80
2018-12-04T12:38:31.742Z,3.17
2018-12-04T12:40:59.712Z,2.13
2018-12-04T12:43:29.024Z,3.63
2018-12-04T12:45:58.880Z,3.80
2018-12-04T12:48:27.693Z,2.70
2018-12-04T12:50:55.828Z,3.20
2018-12-04T12:53:26.394Z,3.13
2018-12-04T12:55:55.790Z,3.00
2018-12-04T12:58:24.314Z,2.20
2018-12-04T13:00:53.783Z,4.30
2018-12-04T13:03:22.582Z,3.10
2018-12-04T13:05:51.201Z,3.57
2018-12-04T13:08:20.976Z,2.90
2018-12-04T13:10:49.875Z,3.00
2018-12-04T13:13:19.776Z,2.40
2018-12-04T13:15:48.469Z,2.77
2018-12-04T13:18:16.971Z,3.17
2018-12-04T13:20:46.744Z,2.40
2018-12-04T13:23:16.063Z,2.23
2018-12-04T13:25:45.556Z,2.93
2018-12-04T13:28:13.948Z,3.13
2018-12-04T13:30:42.513Z,3.30
2018-12-04T13:33:13.044Z,5.50
2018-12-04T13:35:42.633Z,3.60
2018-12-04T13:38:11.664Z,2.23
2018-12-04T13:40:41.331Z,3.50
2018-12-04T13:43:09.465Z,4.07
2018-12-04T13:45:38.473Z,3.70
2018-12-04T13:48:07.366Z,3.43
2018-12-04T13:50:35.522Z,2.53
2018-12-04T13:53:04.900Z,3.10
2018-12-04T13:55:33.330Z,2.63
2018-12-04T13:58:01.509Z,2.67
2018-12-04T14:00:31.351Z,2.43
2018-12-04T14:02:59.770Z,2.33
2018-12-04T14:05:27.956Z,4.07
2018-12-04T14:07:55.971Z,2.33
2018-12-04T14:10:23.957Z,3.53
2018-12-04T14:12:52.199Z,3.37
2018-12-04T14:15:20.629Z,6.80
2018-12-04T14:17:49.446Z,9.90
2018-12-04T14:20:17.906Z,6.77
2018-12-04T14:22:45.959Z,9.80
2018-12-04T14:25:14.898Z,12.50
2018-12-04T14:27:42.943Z,10.23
2018-12-04T14:30:11.369Z,15.00
2018-12-04T14:32:39.591Z,2.97
2018-12-04T14:35:07.648Z,5.67
2018-12-04T14:37:35.604Z,3.80
2018-12-04T14:40:04.190Z,3.77
2018-12-04T14:42:32.172Z,4.07
2018-12-04T14:45:00.528Z,5.30
2018-12-04T14:47:29.415Z,2.90
2018-12-04T14:49:57.403Z,2.00
2018-12-04T14:52:25.553Z,2.37
2018-12-04T14:54:53.571Z,2.27
2018-12-04T14:57:21.560Z,2.20
2018-12-04T14:59:49.672Z,1.67
2018-12-04T15:02:17.690Z,1.83
2018-12-04T15:04:46.883Z,1.80
2018-12-04T15:07:15.170Z,2.87
2018-12-04T15:09:43.455Z,2.93
2018-12-04T15:12:11.558Z,2.30
2018-12-04T15:14:39.586Z,2.37
2018-12-04T15:17:07.591Z,2.80
2018-12-04T15:19:35.871Z,2.53
2018-12-04T15:22:03.969Z,2.40
2018-12-04T15:24:31.993Z,2.90
2018-12-04T15:27:00.116Z,3.83
2018-12-04T15:29:28.144Z,2.63
2018-12-04T15:31:56.273Z,2.77
2018-12-04T15:34:24.273Z,3.10
2018-12-04T15:36:56.470Z,3.03
2018-12-04T15:39:23.087Z,2.80
2018-12-04T15:41:51.293Z,3.37
2018-12-04T15:44:19.411Z,3.43
2018-12-04T15:46:47.474Z,3.43
2018-12-04T15:49:15.453Z,2.93
2018-12-04T15:51:44.897Z,2.50
2018-12-04T15:54:12.954Z,3.37
2018-12-04T15:56:40.918Z,2.93
2018-12-04T15:59:09.595Z,1.97
2018-12-04T16:01:38.230Z,3.40
2018-12-04T16:04:06.196Z,2.87
2018-12-04T16:06:35.492Z,2.83
2018-12-04T16:09:06.330Z,2.17
2018-12-04T16:11:34.377Z,2.47
2018-12-04T16:14:03.394Z,2.60
2018-12-04T16:16:31.542Z,2.73
2018-12-04T16:18:59.534Z,2.60
2018-12-04T16:21:27.503Z,2.60
2018-12-04T16:23:55.598Z,2.90
2018-12-04T16:26:23.634Z,3.00
2018-12-04T16:28:51.579Z,2.63
2018-12-04T16:31:19.545Z,4.73
2018-12-04T16:33:47.540Z,2.63
2018-12-04T16:36:15.640Z,2.07
2018-12-04T16:38:43.754Z,2.80
2018-12-04T16:41:11.756Z,2.80
2018-12-04T16:43:39.825Z,3.90
2018-12-04T16:46:07.922Z,2.50
2018-12-04T16:48:36.758Z,2.50
2018-12-04T16:51:04.713Z,1.90
2018-12-04T16:53:32.940Z,1.80
2018-12-04T16:56:01.106Z,2.50
2018-12-04T16:58:29.139Z,1.87
2018-12-04T17:00:57.184Z,2.20
2018-12-04T17:03:27.369Z,4.73
2018-12-04T17:05:55.565Z,2.10
2018-12-04T17:08:24.521Z,2.30
2018-12-04T17:10:52.471Z,2.97
2018-12-04T17:13:20.474Z,2.77
2018-12-04T17:15:48.746Z,2.70
2018-12-04T17:18:16.819Z,2.77
2018-12-04T17:20:45.339Z,3.43
2018-12-04T17:23:13.322Z,2.90
2018-12-04T17:25:41.386Z,2.90
2018-12-04T17:28:09.346Z,3.30
2018-12-04T17:30:37.311Z,2.20
2018-12-04T17:33:05.284Z,3.20
2018-12-04T17:35:33.329Z,3.20
2018-12-04T17:38:01.346Z,2.67
2018-12-04T17:40:29.727Z,2.70
2018-12-04T17:42:57.715Z,3.30
2018-12-04T17:45:25.668Z,2.50
2018-12-04T17:47:54.591Z,2.50
2018-12-04T17:50:22.553Z,3.00
2018-12-04T17:52:50.884Z,5.30
2018-12-04T17:55:18.910Z,2.47
2018-12-04T17:57:46.867Z,2.83
2018-12-04T18:00:15.659Z,2.63
2018-12-04T18:02:43.813Z,2.50
2018-12-04T18:05:12.473Z,3.03
2018-12-04T18:07:41.771Z,2.73
2018-12-04T18:10:09.798Z,2.27
2018-12-04T18:12:37.770Z,2.43
2018-12-04T18:15:06.827Z,3.67
2018-12-04T18:17:34.855Z,2.70
2018-12-04T18:20:03.325Z,2.30
2018-12-04T18:22:31.894Z,2.20
2018-12-04T18:25:00.709Z,3.60
2018-12-04T18:27:28.691Z,2.00
2018-12-04T18:29:56.736Z,3.00
2018-12-04T18:32:25.554Z,3.00
2018-12-04T18:34:53.679Z,2.60
2018-12-04T18:37:21.726Z,2.30
2018-12-04T18:39:49.848Z,3.30
2018-12-04T18:42:17.819Z,3.20
2018-12-04T18:44:46.829Z,2.73
2018-12-04T18:47:15.426Z,1.80
2018-12-04T18:49:43.606Z,2.73
2018-12-04T18:52:11.634Z,3.50
2018-12-04T18:54:40.438Z,2.50
2018-12-04T18:57:08.539Z,2.83
2018-12-04T18:59:36.622Z,2.57
2018-12-04T19:02:04.848Z,2.57
2018-12-04T19:04:32.811Z,2.43
2018-12-04T19:07:00.903Z,3.00
2018-12-04T19:09:28.858Z,2.93
2018-12-04T19:11:56.880Z,2.70
2018-12-04T19:14:24.845Z,2.60
2018-12-04T19:16:54.455Z,2.77
2018-12-04T19:19:22.669Z,3.43
2018-12-04T19:21:50.797Z,3.97
2018-12-04T19:24:18.742Z,5.47
2018-12-04T19:26:46.733Z,4.83
2018-12-04T19:29:15.001Z,2.93
2018-12-04T19:31:43.330Z,6.67
2018-12-04T19:34:11.345Z,7.67
2018-12-04T19:36:39.459Z,5.37
2018-12-04T19:39:07.849Z,3.47
2018-12-04T19:41:36.725Z,3.47
2018-12-04T19:44:04.946Z,5.13
2018-12-04T19:46:34.386Z,5.00
2018-12-04T19:49:02.591Z,2.70
2018-12-04T19:51:31.153Z,7.20
2018-12-04T19:53:59.308Z,4.33
2018-12-04T19:56:27.358Z,3.67
2018-12-04T19:58:55.730Z,3.80
2018-12-04T20:01:23.978Z,2.90
2018-12-04T20:03:52.133Z,2.23
2018-12-04T20:06:20.056Z,2.27
2018-12-04T20:08:53.204Z,3.00
2018-12-04T20:11:21.480Z,2.73
2018-12-04T20:13:49.435Z,2.70
2018-12-04T20:16:18.600Z,2.83
2018-12-04T20:18:47.127Z,3.63
2018-12-04T20:21:15.273Z,3.10
2018-12-04T20:23:43.249Z,2.67
2018-12-04T20:26:11.366Z,2.57
2018-12-04T20:28:39.640Z,3.50
2018-12-04T20:31:07.643Z,2.27
2018-12-04T20:33:35.634Z,6.60
2018-12-04T20:36:03.674Z,9.03
2018-12-04T20:38:31.644Z,4.10
2018-12-04T20:40:59.864Z,7.23
2018-12-04T20:43:27.993Z,11.47
2018-12-04T20:45:56.913Z,18.33
2018-12-04T20:48:24.923Z,13.80
2018-12-04T20:50:52.929Z,6.60
2018-12-04T20:53:20.885Z,11.13
2018-12-04T20:55:48.902Z,5.13
2018-12-04T20:58:17.022Z,5.50
2018-12-04T21:00:45.057Z,4.27
2018-12-04T21:03:13.014Z,4.97
2018-12-04T21:05:41.012Z,3.90
2018-12-04T21:08:09.019Z,3.77
2018-12-04T21:10:37.446Z,3.20
2018-12-04T21:13:05.442Z,3.10
2018-12-04T21:15:33.532Z,3.17
2018-12-04T21:18:01.600Z,3.10
2018-12-04T21:20:29.591Z,2.70
2018-12-04T21:22:58.341Z,2.43
2018-12-04T21:25:27.176Z,2.70
2018-12-04T21:28:00.888Z,2.70
2018-12-04T21:33:35.803Z,3.30
2018-12-04T21:36:09.479Z,2.90
2018-12-04T21:38:43.155Z,2.93
2018-12-04T21:41:13.178Z,2.63
2018-12-04T21:43:46.850Z,3.00
2018-12-04T21:46:20.543Z,2.17
2018-12-04T21:48:49.035Z,2.33
2018-12-04T21:51:17.150Z,2.43
2018-12-04T21:53:46.224Z,2.43
2018-12-04T21:56:15.108Z,3.00
2018-12-04T21:58:43.235Z,2.63
2018-12-04T22:01:11.739Z,3.40
2018-12-04T22:03:39.898Z,2.43
2018-12-04T22:06:07.902Z,2.83
2018-12-04T22:08:36.301Z,3.20
2018-12-04T22:11:04.298Z,2.97
2018-12-04T22:13:32.326Z,2.10
2018-12-04T22:16:00.282Z,2.87
2018-12-04T22:18:28.317Z,2.53
2018-12-04T22:20:56.639Z,2.30
2018-12-04T22:23:24.600Z,2.80
2018-12-04T22:25:52.706Z,2.20
2018-12-04T22:28:20.993Z,2.50
2018-12-04T22:30:49.091Z,3.13
2018-12-04T22:33:17.136Z,2.63
2018-12-04T22:35:45.872Z,2.60
2018-12-04T22:38:13.839Z,1.80
2018-12-04T22:40:41.910Z,2.00
2018-12-04T22:43:09.874Z,2.93
2018-12-04T22:45:38.142Z,2.37
2018-12-04T22:48:06.183Z,1.67
2018-12-04T22:50:34.843Z,2.63
2018-12-04T22:53:02.894Z,2.07
2018-12-04T22:55:30.855Z,2.53
2018-12-04T22:57:58.971Z,2.10
2018-12-04T23:00:30.612Z,3.20
2018-12-04T23:02:59.168Z,2.83
2018-12-04T23:05:27.496Z,4.87
2018-12-04T23:07:55.507Z,2.27
2018-12-04T23:10:24.406Z,5.80
2018-12-04T23:12:52.404Z,2.97
2018-12-04T23:15:21.673Z,2.30
2018-12-04T23:17:49.856Z,2.47
2018-12-04T23:20:17.828Z,2.60
2018-12-04T23:22:45.775Z,2.63
2018-12-04T23:25:13.925Z,2.23
2018-12-04T23:27:42.335Z,3.57
2018-12-04T23:30:10.327Z,2.20
2018-12-04T23:32:38.301Z,2.40
2018-12-04T23:35:06.585Z,2.40
2018-12-04T23:37:34.555Z,2.10
2018-12-04T23:40:02.670Z,2.50
2018-12-04T23:42:30.746Z,2.93
2018-12-04T23:44:58.710Z,2.33
2018-12-04T23:47:26.856Z,2.53
2018-12-04T23:49:54.870Z,2.83
2018-12-04T23:52:35.152Z,2.23
2018-12-04T23:57:49.355Z,2.37
